sensor_id;sensor_type;location;lat;lon;timestamp;temperature;humidity
16392;DHT22;8305;-33.882;151.134;2023-06-24T00:00:35;14.30;99.90
16392;DHT22;8305;-33.882;151.134;2023-06-24T00:03:06;14.40;99.90
16392;DHT22;8305;-33.882;151.134;2023-06-24T00:05:39;14.40;99.90
16392;DHT22;8305;-33.882;151.134;2023-06-24T00:08:11;14.60;99.90
16392;DHT22;8305;-33.882;151.134;2023-06-24T00:10:43;14.70;99.90
16392;DHT22;8305;-33.882;151.134;2023-06-24T00:13:14;14.80;99.90
16392;DHT22;8305;-33.882;151.134;2023-06-24T00:15:45;14.90;99.90
16392;DHT22;8305;-33.882;151.134;2023-06-24T00:18:16;15.00;99.90
16392;DHT22;8305;-33.882;151.134;2023-06-24T00:20:48;15.10;99.90
16392;DHT22;8305;-33.882;151.134;2023-06-24T00:23:22;15.20;99.90
16392;DHT22;8305;-33.882;151.134;2023-06-24T00:25:55;15.20;99.90
16392;DHT22;8305;-33.882;151.134;2023-06-24T00:28:26;15.30;99.90
16392;DHT22;8305;-33.882;151.134;2023-06-24T00:30:56;15.40;99.90
16392;DHT22;8305;-33.882;151.134;2023-06-24T00:33:27;15.60;99.90
16392;DHT22;8305;-33.882;151.134;2023-06-24T00:36:03;15.70;99.90
16392;DHT22;8305;-33.882;151.134;2023-06-24T00:38:34;15.80;99.90
16392;DHT22;8305;-33.882;151.134;2023-06-24T00:41:05;15.80;99.90
16392;DHT22;8305;-33.882;151.134;2023-06-24T00:43:36;15.80;99.90
16392;DHT22;8305;-33.882;151.134;2023-06-24T00:46:07;15.90;99.90
16392;DHT22;8305;-33.882;151.134;2023-06-24T00:48:38;15.90;99.90
16392;DHT22;8305;-33.882;151.134;2023-06-24T00:51:11;15.90;99.90
16392;DHT22;8305;-33.882;151.134;2023-06-24T00:53:41;15.90;99.90
16392;DHT22;8305;-33.882;151.134;2023-06-24T00:56:13;16.00;99.90
16392;DHT22;8305;-33.882;151.134;2023-06-24T00:58:45;16.10;99.90
16392;DHT22;8305;-33.882;151.134;2023-06-24T01:01:16;16.10;99.90
16392;DHT22;8305;-33.882;151.134;2023-06-24T01:03:47;16.20;99.90
16392;DHT22;8305;-33.882;151.134;2023-06-24T01:06:20;16.30;99.90
16392;DHT22;8305;-33.882;151.134;2023-06-24T01:08:51;16.30;99.90
16392;DHT22;8305;-33.882;151.134;2023-06-24T01:11:24;16.50;99.90
16392;DHT22;8305;-33.882;151.134;2023-06-24T01:13:57;16.50;99.90
16392;DHT22;8305;-33.882;151.134;2023-06-24T01:16:37;16.50;99.90
16392;DHT22;8305;-33.882;151.134;2023-06-24T01:22:20;16.60;99.90
16392;DHT22;8305;-33.882;151.134;2023-06-24T01:25:08;16.70;99.90
16392;DHT22;8305;-33.882;151.134;2023-06-24T01:27:59;16.70;99.90
16392;DHT22;8305;-33.882;151.134;2023-06-24T01:30:58;16.80;99.90
16392;DHT22;8305;-33.882;151.134;2023-06-24T01:33:41;16.90;99.90
16392;DHT22;8305;-33.882;151.134;2023-06-24T01:36:17;17.00;99.90
16392;DHT22;8305;-33.882;151.134;2023-06-24T01:38:51;17.10;99.90
16392;DHT22;8305;-33.882;151.134;2023-06-24T01:41:24;17.00;99.90
16392;DHT22;8305;-33.882;151.134;2023-06-24T01:43:56;17.10;99.90
16392;DHT22;8305;-33.882;151.134;2023-06-24T01:46:29;17.10;99.90
16392;DHT22;8305;-33.882;151.134;2023-06-24T01:49:04;17.20;99.90
16392;DHT22;8305;-33.882;151.134;2023-06-24T01:51:36;17.10;99.90
16392;DHT22;8305;-33.882;151.134;2023-06-24T01:54:12;17.20;99.90
16392;DHT22;8305;-33.882;151.134;2023-06-24T01:56:44;17.30;99.90
16392;DHT22;8305;-33.882;151.134;2023-06-24T01:59:18;17.50;99.90
16392;DHT22;8305;-33.882;151.134;2023-06-24T02:01:50;17.60;99.90
16392;DHT22;8305;-33.882;151.134;2023-06-24T02:04:24;17.70;99.90
16392;DHT22;8305;-33.882;151.134;2023-06-24T02:07:00;17.50;99.90
16392;DHT22;8305;-33.882;151.134;2023-06-24T02:09:32;17.50;99.90
16392;DHT22;8305;-33.882;151.134;2023-06-24T02:12:04;17.60;99.90
16392;DHT22;8305;-33.882;151.134;2023-06-24T02:14:37;17.60;99.90
16392;DHT22;8305;-33.882;151.134;2023-06-24T02:17:11;17.80;99.90
16392;DHT22;8305;-33.882;151.134;2023-06-24T02:19:46;17.90;99.90
16392;DHT22;8305;-33.882;151.134;2023-06-24T02:22:18;18.00;99.90
16392;DHT22;8305;-33.882;151.134;2023-06-24T02:24:51;18.00;99.90
16392;DHT22;8305;-33.882;151.134;2023-06-24T02:27:22;18.00;99.90
16392;DHT22;8305;-33.882;151.134;2023-06-24T02:29:54;18.00;99.90
16392;DHT22;8305;-33.882;151.134;2023-06-24T02:32:25;18.20;99.90
16392;DHT22;8305;-33.882;151.134;2023-06-24T02:34:58;18.10;99.90
16392;DHT22;8305;-33.882;151.134;2023-06-24T02:37:30;18.10;99.90
16392;DHT22;8305;-33.882;151.134;2023-06-24T02:40:02;18.10;99.90
16392;DHT22;8305;-33.882;151.134;2023-06-24T02:42:33;18.20;99.90
16392;DHT22;8305;-33.882;151.134;2023-06-24T02:45:04;18.30;99.90
16392;DHT22;8305;-33.882;151.134;2023-06-24T02:47:36;18.30;99.90
16392;DHT22;8305;-33.882;151.134;2023-06-24T02:50:11;18.40;99.90
16392;DHT22;8305;-33.882;151.134;2023-06-24T02:52:42;18.50;99.90
16392;DHT22;8305;-33.882;151.134;2023-06-24T02:55:13;18.50;99.90
16392;DHT22;8305;-33.882;151.134;2023-06-24T02:57:45;18.60;99.90
16392;DHT22;8305;-33.882;151.134;2023-06-24T03:00:16;18.60;99.90
16392;DHT22;8305;-33.882;151.134;2023-06-24T03:02:48;18.60;99.90
16392;DHT22;8305;-33.882;151.134;2023-06-24T03:05:22;18.60;99.90
16392;DHT22;8305;-33.882;151.134;2023-06-24T03:07:53;18.60;99.90
16392;DHT22;8305;-33.882;151.134;2023-06-24T03:10:25;18.60;99.90
16392;DHT22;8305;-33.882;151.134;2023-06-24T03:12:55;18.60;99.90
16392;DHT22;8305;-33.882;151.134;2023-06-24T03:15:26;18.60;99.90
16392;DHT22;8305;-33.882;151.134;2023-06-24T03:17:57;18.70;99.90
16392;DHT22;8305;-33.882;151.134;2023-06-24T03:20:30;18.70;99.90
16392;DHT22;8305;-33.882;151.134;2023-06-24T03:23:07;18.80;99.90
16392;DHT22;8305;-33.882;151.134;2023-06-24T03:25:37;18.90;99.90
16392;DHT22;8305;-33.882;151.134;2023-06-24T03:28:08;18.90;99.90
16392;DHT22;8305;-33.882;151.134;2023-06-24T03:30:39;18.90;99.90
16392;DHT22;8305;-33.882;151.134;2023-06-24T03:33:10;19.00;99.90
16392;DHT22;8305;-33.882;151.134;2023-06-24T03:35:46;19.10;99.90
16392;DHT22;8305;-33.882;151.134;2023-06-24T03:38:17;19.10;99.90
16392;DHT22;8305;-33.882;151.134;2023-06-24T03:40:48;19.10;99.90
16392;DHT22;8305;-33.882;151.134;2023-06-24T03:43:18;19.10;99.90
16392;DHT22;8305;-33.882;151.134;2023-06-24T03:45:49;19.10;99.90
16392;DHT22;8305;-33.882;151.134;2023-06-24T03:48:20;19.10;99.90
16392;DHT22;8305;-33.882;151.134;2023-06-24T03:50:53;19.10;99.90
16392;DHT22;8305;-33.882;151.134;2023-06-24T03:53:24;19.20;99.90
16392;DHT22;8305;-33.882;151.134;2023-06-24T03:55:54;19.20;99.90
16392;DHT22;8305;-33.882;151.134;2023-06-24T03:58:25;19.20;99.90
16392;DHT22;8305;-33.882;151.134;2023-06-24T04:00:56;19.20;99.90
16392;DHT22;8305;-33.882;151.134;2023-06-24T04:03:27;19.20;99.90
16392;DHT22;8305;-33.882;151.134;2023-06-24T04:06:01;19.20;99.90
16392;DHT22;8305;-33.882;151.134;2023-06-24T04:08:32;19.10;99.90
16392;DHT22;8305;-33.882;151.134;2023-06-24T04:11:02;19.20;99.90
16392;DHT22;8305;-33.882;151.134;2023-06-24T04:13:34;19.20;99.90
16392;DHT22;8305;-33.882;151.134;2023-06-24T04:16:05;19.20;99.90
16392;DHT22;8305;-33.882;151.134;2023-06-24T04:18:36;19.20;99.90
16392;DHT22;8305;-33.882;151.134;2023-06-24T04:21:09;19.20;99.90
16392;DHT22;8305;-33.882;151.134;2023-06-24T04:23:40;19.30;99.90
16392;DHT22;8305;-33.882;151.134;2023-06-24T04:26:11;19.30;99.90
16392;DHT22;8305;-33.882;151.134;2023-06-24T04:28:42;19.30;99.90
16392;DHT22;8305;-33.882;151.134;2023-06-24T04:31:12;19.20;99.90
16392;DHT22;8305;-33.882;151.134;2023-06-24T04:33:43;19.30;99.90
16392;DHT22;8305;-33.882;151.134;2023-06-24T04:36:16;19.30;99.90
16392;DHT22;8305;-33.882;151.134;2023-06-24T04:38:47;19.30;99.90
16392;DHT22;8305;-33.882;151.134;2023-06-24T04:41:17;19.30;99.90
16392;DHT22;8305;-33.882;151.134;2023-06-24T04:43:51;19.30;99.90
16392;DHT22;8305;-33.882;151.134;2023-06-24T04:46:24;19.30;99.90
16392;DHT22;8305;-33.882;151.134;2023-06-24T04:48:56;19.30;99.90
16392;DHT22;8305;-33.882;151.134;2023-06-24T04:51:28;19.40;99.90
16392;DHT22;8305;-33.882;151.134;2023-06-24T04:53:59;19.40;99.90
16392;DHT22;8305;-33.882;151.134;2023-06-24T04:56:31;19.30;99.90
16392;DHT22;8305;-33.882;151.134;2023-06-24T04:59:02;19.30;99.90
16392;DHT22;8305;-33.882;151.134;2023-06-24T05:01:33;19.30;99.90
16392;DHT22;8305;-33.882;151.134;2023-06-24T05:04:03;19.40;99.90
16392;DHT22;8305;-33.882;151.134;2023-06-24T05:06:36;19.40;99.90
16392;DHT22;8305;-33.882;151.134;2023-06-24T05:09:07;19.50;99.90
16392;DHT22;8305;-33.882;151.134;2023-06-24T05:11:41;19.40;99.90
16392;DHT22;8305;-33.882;151.134;2023-06-24T05:14:11;19.50;99.90
16392;DHT22;8305;-33.882;151.134;2023-06-24T05:16:42;19.50;99.90
16392;DHT22;8305;-33.882;151.134;2023-06-24T05:19:13;19.40;99.90
16392;DHT22;8305;-33.882;151.134;2023-06-24T05:21:46;19.40;99.90
16392;DHT22;8305;-33.882;151.134;2023-06-24T05:24:16;19.30;99.90
16392;DHT22;8305;-33.882;151.134;2023-06-24T05:26:50;19.30;99.90
16392;DHT22;8305;-33.882;151.134;2023-06-24T05:29:21;19.20;99.90
16392;DHT22;8305;-33.882;151.134;2023-06-24T05:31:52;19.20;99.90
16392;DHT22;8305;-33.882;151.134;2023-06-24T05:34:22;19.20;99.90
16392;DHT22;8305;-33.882;151.134;2023-06-24T05:36:55;19.10;99.90
16392;DHT22;8305;-33.882;151.134;2023-06-24T05:39:26;19.10;99.90
16392;DHT22;8305;-33.882;151.134;2023-06-24T05:41:57;19.10;99.90
16392;DHT22;8305;-33.882;151.134;2023-06-24T05:44:28;19.00;99.90
16392;DHT22;8305;-33.882;151.134;2023-06-24T05:46:59;19.00;99.90
16392;DHT22;8305;-33.882;151.134;2023-06-24T05:49:29;18.90;99.90
16392;DHT22;8305;-33.882;151.134;2023-06-24T05:52:02;18.90;99.90
16392;DHT22;8305;-33.882;151.134;2023-06-24T05:54:33;18.90;99.90
16392;DHT22;8305;-33.882;151.134;2023-06-24T05:57:04;18.90;99.90
16392;DHT22;8305;-33.882;151.134;2023-06-24T05:59:35;18.80;99.90
16392;DHT22;8305;-33.882;151.134;2023-06-24T06:02:06;18.80;99.90
16392;DHT22;8305;-33.882;151.134;2023-06-24T06:04:38;18.70;99.90
16392;DHT22;8305;-33.882;151.134;2023-06-24T06:07:11;18.70;99.90
16392;DHT22;8305;-33.882;151.134;2023-06-24T06:09:41;18.70;99.90
16392;DHT22;8305;-33.882;151.134;2023-06-24T06:12:12;18.70;99.90
16392;DHT22;8305;-33.882;151.134;2023-06-24T06:14:43;18.60;99.90
16392;DHT22;8305;-33.882;151.134;2023-06-24T06:17:13;18.60;99.90
16392;DHT22;8305;-33.882;151.134;2023-06-24T06:19:44;18.50;99.90
16392;DHT22;8305;-33.882;151.134;2023-06-24T06:22:17;18.50;99.90
16392;DHT22;8305;-33.882;151.134;2023-06-24T06:24:47;18.40;99.90
16392;DHT22;8305;-33.882;151.134;2023-06-24T06:27:18;18.30;99.90
16392;DHT22;8305;-33.882;151.134;2023-06-24T06:29:49;18.20;99.90
16392;DHT22;8305;-33.882;151.134;2023-06-24T06:32:19;18.10;99.90
16392;DHT22;8305;-33.882;151.134;2023-06-24T06:34:50;18.00;99.90
16392;DHT22;8305;-33.882;151.134;2023-06-24T06:37:23;17.90;99.90
16392;DHT22;8305;-33.882;151.134;2023-06-24T06:39:53;17.80;99.90
16392;DHT22;8305;-33.882;151.134;2023-06-24T06:42:24;17.70;99.90
16392;DHT22;8305;-33.882;151.134;2023-06-24T06:44:55;17.60;99.90
16392;DHT22;8305;-33.882;151.134;2023-06-24T06:47:25;17.50;99.90
16392;DHT22;8305;-33.882;151.134;2023-06-24T06:49:56;17.40;99.90
16392;DHT22;8305;-33.882;151.134;2023-06-24T06:52:28;17.20;99.90
16392;DHT22;8305;-33.882;151.134;2023-06-24T06:54:59;17.10;99.90
16392;DHT22;8305;-33.882;151.134;2023-06-24T06:57:30;16.90;99.90
16392;DHT22;8305;-33.882;151.134;2023-06-24T07:00:01;16.70;99.90
16392;DHT22;8305;-33.882;151.134;2023-06-24T07:02:31;16.60;99.90
16392;DHT22;8305;-33.882;151.134;2023-06-24T07:05:02;16.50;99.90
16392;DHT22;8305;-33.882;151.134;2023-06-24T07:07:35;16.40;99.90
16392;DHT22;8305;-33.882;151.134;2023-06-24T07:10:06;16.40;99.90
16392;DHT22;8305;-33.882;151.134;2023-06-24T07:12:36;16.40;99.90
16392;DHT22;8305;-33.882;151.134;2023-06-24T07:15:07;16.30;99.90
16392;DHT22;8305;-33.882;151.134;2023-06-24T07:17:38;16.30;99.90
16392;DHT22;8305;-33.882;151.134;2023-06-24T07:20:10;16.20;99.90
16392;DHT22;8305;-33.882;151.134;2023-06-24T07:22:43;16.10;99.90
16392;DHT22;8305;-33.882;151.134;2023-06-24T07:25:14;16.10;99.90
16392;DHT22;8305;-33.882;151.134;2023-06-24T07:27:45;16.00;99.90
16392;DHT22;8305;-33.882;151.134;2023-06-24T07:30:16;16.00;99.90
16392;DHT22;8305;-33.882;151.134;2023-06-24T07:32:47;16.00;99.90
16392;DHT22;8305;-33.882;151.134;2023-06-24T07:35:17;15.90;99.90
16392;DHT22;8305;-33.882;151.134;2023-06-24T07:37:50;15.90;99.90
16392;DHT22;8305;-33.882;151.134;2023-06-24T07:40:21;15.90;99.90
16392;DHT22;8305;-33.882;151.134;2023-06-24T07:42:52;16.00;99.90
16392;DHT22;8305;-33.882;151.134;2023-06-24T07:45:23;16.00;99.90
16392;DHT22;8305;-33.882;151.134;2023-06-24T07:47:53;16.00;99.90
16392;DHT22;8305;-33.882;151.134;2023-06-24T07:50:24;16.00;99.90
16392;DHT22;8305;-33.882;151.134;2023-06-24T07:52:57;16.00;99.90
16392;DHT22;8305;-33.882;151.134;2023-06-24T07:55:27;16.00;99.90
16392;DHT22;8305;-33.882;151.134;2023-06-24T07:57:58;16.00;99.90
16392;DHT22;8305;-33.882;151.134;2023-06-24T08:00:30;15.90;99.90
16392;DHT22;8305;-33.882;151.134;2023-06-24T08:03:01;15.90;99.90
16392;DHT22;8305;-33.882;151.134;2023-06-24T08:05:32;15.80;99.90
16392;DHT22;8305;-33.882;151.134;2023-06-24T08:08:05;15.80;99.90
16392;DHT22;8305;-33.882;151.134;2023-06-24T08:10:35;15.70;99.90
16392;DHT22;8305;-33.882;151.134;2023-06-24T08:13:06;15.60;99.90
16392;DHT22;8305;-33.882;151.134;2023-06-24T08:15:37;15.60;99.90
16392;DHT22;8305;-33.882;151.134;2023-06-24T08:18:07;15.50;99.90
16392;DHT22;8305;-33.882;151.134;2023-06-24T08:20:38;15.50;99.90
16392;DHT22;8305;-33.882;151.134;2023-06-24T08:23:10;15.40;99.90
16392;DHT22;8305;-33.882;151.134;2023-06-24T08:25:41;15.40;99.90
16392;DHT22;8305;-33.882;151.134;2023-06-24T08:28:12;15.30;99.90
16392;DHT22;8305;-33.882;151.134;2023-06-24T08:30:43;15.30;99.90
16392;DHT22;8305;-33.882;151.134;2023-06-24T08:33:13;15.20;99.90
16392;DHT22;8305;-33.882;151.134;2023-06-24T08:35:44;15.10;99.90
16392;DHT22;8305;-33.882;151.134;2023-06-24T08:38:17;15.10;99.90
16392;DHT22;8305;-33.882;151.134;2023-06-24T08:40:48;15.00;99.90
16392;DHT22;8305;-33.882;151.134;2023-06-24T08:43:19;14.90;99.90
16392;DHT22;8305;-33.882;151.134;2023-06-24T08:45:50;14.80;99.90
16392;DHT22;8305;-33.882;151.134;2023-06-24T08:48:21;14.60;99.90
16392;DHT22;8305;-33.882;151.134;2023-06-24T08:50:53;14.50;99.90
16392;DHT22;8305;-33.882;151.134;2023-06-24T08:53:28;14.50;99.90
16392;DHT22;8305;-33.882;151.134;2023-06-24T08:55:59;14.40;99.90
16392;DHT22;8305;-33.882;151.134;2023-06-24T08:58:30;14.30;99.90
16392;DHT22;8305;-33.882;151.134;2023-06-24T09:01:01;14.30;99.90
16392;DHT22;8305;-33.882;151.134;2023-06-24T09:03:32;14.20;99.90
16392;DHT22;8305;-33.882;151.134;2023-06-24T09:06:03;14.20;99.90
16392;DHT22;8305;-33.882;151.134;2023-06-24T09:08:36;14.20;99.90
16392;DHT22;8305;-33.882;151.134;2023-06-24T09:11:09;14.10;99.90
16392;DHT22;8305;-33.882;151.134;2023-06-24T09:13:40;14.00;99.90
16392;DHT22;8305;-33.882;151.134;2023-06-24T09:16:15;14.00;99.90
16392;DHT22;8305;-33.882;151.134;2023-06-24T09:18:49;13.90;99.90
16392;DHT22;8305;-33.882;151.134;2023-06-24T09:21:24;13.90;99.90
16392;DHT22;8305;-33.882;151.134;2023-06-24T09:24:00;13.80;99.90
16392;DHT22;8305;-33.882;151.134;2023-06-24T09:26:30;13.80;99.90
16392;DHT22;8305;-33.882;151.134;2023-06-24T09:29:01;13.70;99.90
16392;DHT22;8305;-33.882;151.134;2023-06-24T09:31:32;13.60;99.90
16392;DHT22;8305;-33.882;151.134;2023-06-24T09:34:02;13.60;99.90
16392;DHT22;8305;-33.882;151.134;2023-06-24T09:36:33;13.50;99.90
16392;DHT22;8305;-33.882;151.134;2023-06-24T09:39:06;13.40;99.90
16392;DHT22;8305;-33.882;151.134;2023-06-24T09:41:40;13.30;99.90
16392;DHT22;8305;-33.882;151.134;2023-06-24T09:44:13;13.20;99.90
16392;DHT22;8305;-33.882;151.134;2023-06-24T09:46:44;13.10;99.90
16392;DHT22;8305;-33.882;151.134;2023-06-24T09:49:15;13.10;99.90
16392;DHT22;8305;-33.882;151.134;2023-06-24T09:51:47;13.00;99.90
16392;DHT22;8305;-33.882;151.134;2023-06-24T09:54:20;13.00;99.90
16392;DHT22;8305;-33.882;151.134;2023-06-24T09:56:52;13.00;99.90
16392;DHT22;8305;-33.882;151.134;2023-06-24T09:59:23;12.90;99.90
16392;DHT22;8305;-33.882;151.134;2023-06-24T10:01:54;12.90;99.90
16392;DHT22;8305;-33.882;151.134;2023-06-24T10:04:26;12.90;99.90
16392;DHT22;8305;-33.882;151.134;2023-06-24T10:06:58;12.90;99.90
16392;DHT22;8305;-33.882;151.134;2023-06-24T10:09:32;12.80;99.90
16392;DHT22;8305;-33.882;151.134;2023-06-24T10:12:06;12.80;99.90
16392;DHT22;8305;-33.882;151.134;2023-06-24T10:14:37;12.80;99.90
16392;DHT22;8305;-33.882;151.134;2023-06-24T10:17:08;12.70;99.90
16392;DHT22;8305;-33.882;151.134;2023-06-24T10:19:42;12.70;99.90
16392;DHT22;8305;-33.882;151.134;2023-06-24T10:22:14;12.70;99.90
16392;DHT22;8305;-33.882;151.134;2023-06-24T10:24:47;12.60;99.90
16392;DHT22;8305;-33.882;151.134;2023-06-24T10:27:19;12.60;99.90
16392;DHT22;8305;-33.882;151.134;2023-06-24T10:29:52;12.50;99.90
16392;DHT22;8305;-33.882;151.134;2023-06-24T10:32:24;12.50;99.90
16392;DHT22;8305;-33.882;151.134;2023-06-24T10:34:56;12.50;99.90
16392;DHT22;8305;-33.882;151.134;2023-06-24T10:37:30;12.40;99.90
16392;DHT22;8305;-33.882;151.134;2023-06-24T10:40:09;12.40;99.90
16392;DHT22;8305;-33.882;151.134;2023-06-24T10:42:41;12.40;99.90
16392;DHT22;8305;-33.882;151.134;2023-06-24T10:45:19;12.40;99.90
16392;DHT22;8305;-33.882;151.134;2023-06-24T10:47:53;12.30;99.90
16392;DHT22;8305;-33.882;151.134;2023-06-24T10:50:27;12.30;99.90
16392;DHT22;8305;-33.882;151.134;2023-06-24T10:52:58;12.30;99.90
16392;DHT22;8305;-33.882;151.134;2023-06-24T10:55:31;12.30;99.90
16392;DHT22;8305;-33.882;151.134;2023-06-24T10:58:09;12.20;99.90
16392;DHT22;8305;-33.882;151.134;2023-06-24T11:00:43;12.20;99.90
16392;DHT22;8305;-33.882;151.134;2023-06-24T11:03:15;12.20;99.90
16392;DHT22;8305;-33.882;151.134;2023-06-24T11:05:48;12.20;99.90
16392;DHT22;8305;-33.882;151.134;2023-06-24T11:08:21;12.20;99.90
16392;DHT22;8305;-33.882;151.134;2023-06-24T11:10:55;12.20;99.90
16392;DHT22;8305;-33.882;151.134;2023-06-24T11:13:28;12.20;99.90
16392;DHT22;8305;-33.882;151.134;2023-06-24T11:16:01;12.20;99.90
16392;DHT22;8305;-33.882;151.134;2023-06-24T11:18:39;12.20;99.90
16392;DHT22;8305;-33.882;151.134;2023-06-24T11:21:10;12.20;99.90
16392;DHT22;8305;-33.882;151.134;2023-06-24T11:23:41;12.30;99.90
16392;DHT22;8305;-33.882;151.134;2023-06-24T11:26:16;12.30;99.90
16392;DHT22;8305;-33.882;151.134;2023-06-24T11:28:48;12.40;99.90
16392;DHT22;8305;-33.882;151.134;2023-06-24T11:31:19;12.40;99.90
16392;DHT22;8305;-33.882;151.134;2023-06-24T11:33:54;12.50;99.90
16392;DHT22;8305;-33.882;151.134;2023-06-24T11:36:25;12.50;99.90
16392;DHT22;8305;-33.882;151.134;2023-06-24T11:38:56;12.50;99.90
16392;DHT22;8305;-33.882;151.134;2023-06-24T11:41:29;12.50;99.90
16392;DHT22;8305;-33.882;151.134;2023-06-24T11:44:00;12.50;99.90
16392;DHT22;8305;-33.882;151.134;2023-06-24T11:46:31;12.60;99.90
16392;DHT22;8305;-33.882;151.134;2023-06-24T11:49:06;12.60;99.90
16392;DHT22;8305;-33.882;151.134;2023-06-24T11:51:37;12.60;99.90
16392;DHT22;8305;-33.882;151.134;2023-06-24T11:54:16;12.60;99.90
16392;DHT22;8305;-33.882;151.134;2023-06-24T11:56:51;12.50;99.90
16392;DHT22;8305;-33.882;151.134;2023-06-24T11:59:22;12.50;99.90
16392;DHT22;8305;-33.882;151.134;2023-06-24T12:01:54;12.50;99.90
16392;DHT22;8305;-33.882;151.134;2023-06-24T12:04:29;12.40;99.90
16392;DHT22;8305;-33.882;151.134;2023-06-24T12:07:01;12.30;99.90
16392;DHT22;8305;-33.882;151.134;2023-06-24T12:09:32;12.30;99.90
16392;DHT22;8305;-33.882;151.134;2023-06-24T12:12:05;12.20;99.90
16392;DHT22;8305;-33.882;151.134;2023-06-24T12:14:36;12.10;99.90
16392;DHT22;8305;-33.882;151.134;2023-06-24T12:17:07;12.10;99.90
16392;DHT22;8305;-33.882;151.134;2023-06-24T12:19:38;12.10;99.90
16392;DHT22;8305;-33.882;151.134;2023-06-24T12:22:10;12.00;99.90
16392;DHT22;8305;-33.882;151.134;2023-06-24T12:24:40;12.00;99.90
16392;DHT22;8305;-33.882;151.134;2023-06-24T12:27:13;12.00;99.90
16392;DHT22;8305;-33.882;151.134;2023-06-24T12:29:44;12.00;99.90
16392;DHT22;8305;-33.882;151.134;2023-06-24T12:32:15;12.00;99.90
16392;DHT22;8305;-33.882;151.134;2023-06-24T12:34:46;12.00;99.90
16392;DHT22;8305;-33.882;151.134;2023-06-24T12:37:20;12.00;99.90
16392;DHT22;8305;-33.882;151.134;2023-06-24T12:39:57;12.00;99.90
16392;DHT22;8305;-33.882;151.134;2023-06-24T12:42:29;12.00;99.90
16392;DHT22;8305;-33.882;151.134;2023-06-24T12:45:00;12.00;99.90
16392;DHT22;8305;-33.882;151.134;2023-06-24T12:47:31;12.00;99.90
16392;DHT22;8305;-33.882;151.134;2023-06-24T12:50:02;12.00;99.90
16392;DHT22;8305;-33.882;151.134;2023-06-24T12:52:34;12.00;99.90
16392;DHT22;8305;-33.882;151.134;2023-06-24T12:55:07;12.00;99.90
16392;DHT22;8305;-33.882;151.134;2023-06-24T12:57:41;11.90;99.90
16392;DHT22;8305;-33.882;151.134;2023-06-24T13:00:12;11.80;99.90
16392;DHT22;8305;-33.882;151.134;2023-06-24T13:02:43;11.80;99.90
16392;DHT22;8305;-33.882;151.134;2023-06-24T13:05:14;11.80;99.90
16392;DHT22;8305;-33.882;151.134;2023-06-24T13:07:45;11.80;99.90
16392;DHT22;8305;-33.882;151.134;2023-06-24T13:10:16;11.90;99.90
16392;DHT22;8305;-33.882;151.134;2023-06-24T13:12:49;11.80;99.90
16392;DHT22;8305;-33.882;151.134;2023-06-24T13:15:20;11.80;99.90
16392;DHT22;8305;-33.882;151.134;2023-06-24T13:17:51;11.80;99.90
16392;DHT22;8305;-33.882;151.134;2023-06-24T13:20:22;11.80;99.90
16392;DHT22;8305;-33.882;151.134;2023-06-24T13:22:53;11.70;99.90
16392;DHT22;8305;-33.882;151.134;2023-06-24T13:25:24;11.70;99.90
16392;DHT22;8305;-33.882;151.134;2023-06-24T13:27:57;11.70;99.90
16392;DHT22;8305;-33.882;151.134;2023-06-24T13:30:28;11.60;99.90
16392;DHT22;8305;-33.882;151.134;2023-06-24T13:32:58;11.60;99.90
16392;DHT22;8305;-33.882;151.134;2023-06-24T13:35:29;11.50;99.90
16392;DHT22;8305;-33.882;151.134;2023-06-24T13:38:00;11.50;99.90
16392;DHT22;8305;-33.882;151.134;2023-06-24T13:40:31;11.50;99.90
16392;DHT22;8305;-33.882;151.134;2023-06-24T13:43:04;11.40;99.90
16392;DHT22;8305;-33.882;151.134;2023-06-24T13:45:35;11.40;99.90
16392;DHT22;8305;-33.882;151.134;2023-06-24T13:48:06;11.30;99.90
16392;DHT22;8305;-33.882;151.134;2023-06-24T13:50:36;11.20;99.90
16392;DHT22;8305;-33.882;151.134;2023-06-24T13:53:07;11.20;99.90
16392;DHT22;8305;-33.882;151.134;2023-06-24T13:55:38;11.10;99.90
16392;DHT22;8305;-33.882;151.134;2023-06-24T13:58:11;11.00;99.90
16392;DHT22;8305;-33.882;151.134;2023-06-24T14:00:41;11.00;99.90
16392;DHT22;8305;-33.882;151.134;2023-06-24T14:03:13;11.00;99.90
16392;DHT22;8305;-33.882;151.134;2023-06-24T14:05:43;11.00;99.90
16392;DHT22;8305;-33.882;151.134;2023-06-24T14:08:14;11.00;99.90
16392;DHT22;8305;-33.882;151.134;2023-06-24T14:10:45;10.90;99.90
16392;DHT22;8305;-33.882;151.134;2023-06-24T14:13:18;10.80;99.90
16392;DHT22;8305;-33.882;151.134;2023-06-24T14:15:49;10.70;99.90
16392;DHT22;8305;-33.882;151.134;2023-06-24T14:18:20;10.70;99.90
16392;DHT22;8305;-33.882;151.134;2023-06-24T14:20:51;10.60;99.90
16392;DHT22;8305;-33.882;151.134;2023-06-24T14:23:21;10.60;99.90
16392;DHT22;8305;-33.882;151.134;2023-06-24T14:25:53;10.70;99.90
16392;DHT22;8305;-33.882;151.134;2023-06-24T14:28:26;10.70;99.90
16392;DHT22;8305;-33.882;151.134;2023-06-24T14:30:59;10.80;99.90
16392;DHT22;8305;-33.882;151.134;2023-06-24T14:33:30;10.80;99.90
16392;DHT22;8305;-33.882;151.134;2023-06-24T14:36:01;10.80;99.90
16392;DHT22;8305;-33.882;151.134;2023-06-24T14:38:32;10.90;99.90
16392;DHT22;8305;-33.882;151.134;2023-06-24T14:41:03;10.90;99.90
16392;DHT22;8305;-33.882;151.134;2023-06-24T14:43:37;11.00;99.90
16392;DHT22;8305;-33.882;151.134;2023-06-24T14:46:08;11.00;99.90
16392;DHT22;8305;-33.882;151.134;2023-06-24T14:48:39;11.00;99.90
16392;DHT22;8305;-33.882;151.134;2023-06-24T14:51:10;11.00;99.90
16392;DHT22;8305;-33.882;151.134;2023-06-24T14:53:40;11.00;99.90
16392;DHT22;8305;-33.882;151.134;2023-06-24T14:56:11;11.10;99.90
16392;DHT22;8305;-33.882;151.134;2023-06-24T14:58:44;11.10;99.90
16392;DHT22;8305;-33.882;151.134;2023-06-24T15:01:15;11.10;99.90
16392;DHT22;8305;-33.882;151.134;2023-06-24T15:03:46;11.10;99.90
16392;DHT22;8305;-33.882;151.134;2023-06-24T15:06:16;11.10;99.90
16392;DHT22;8305;-33.882;151.134;2023-06-24T15:08:47;11.10;99.90
16392;DHT22;8305;-33.882;151.134;2023-06-24T15:11:18;11.10;99.90
16392;DHT22;8305;-33.882;151.134;2023-06-24T15:13:51;11.00;99.90
16392;DHT22;8305;-33.882;151.134;2023-06-24T15:16:22;11.00;99.90
16392;DHT22;8305;-33.882;151.134;2023-06-24T15:18:52;11.00;99.90
16392;DHT22;8305;-33.882;151.134;2023-06-24T15:21:23;10.90;99.90
16392;DHT22;8305;-33.882;151.134;2023-06-24T15:23:54;10.90;99.90
16392;DHT22;8305;-33.882;151.134;2023-06-24T15:26:25;10.90;99.90
16392;DHT22;8305;-33.882;151.134;2023-06-24T15:28:57;10.80;99.90
16392;DHT22;8305;-33.882;151.134;2023-06-24T15:31:28;10.80;99.90
16392;DHT22;8305;-33.882;151.134;2023-06-24T15:33:59;10.80;99.90